Time;durP1;ratioP1;P1;durP2;ratioP2;P2;SDS_P1;SDS_P2;PMS_P1;PMS_P2;Temp;Humidity;BMP_temperature;BMP_pressure;BME280_temperature;BME280_humidity;BME280_pressure;Samples;Min_cycle;Max_cycle;Signal;HPM_P1;HPM_P2
2022/07/16 00:02:57;;;;;;;;;;;16.00;99.90;;;;;;5110695;28;20295;-67
2022/07/16 00:05:23;;;;;;;;;;;16.00;99.90;;;;;;5101567;28;19920;-65
2022/07/16 00:07:48;;;;;;;;;;;16.00;99.90;;;;;;5109452;28;19924;-67
2022/07/16 00:10:14;;;;;;;;;;;15.90;99.90;;;;;;5115722;28;19969;-67
2022/07/16 00:12:39;;;;;;;;;;;15.80;99.90;;;;;;5104562;28;20025;-67
2022/07/16 00:15:05;;;;;;;;;;;15.80;99.90;;;;;;5128654;27;20009;-66
2022/07/16 00:17:31;;;;;;;;;;;15.70;99.90;;;;;;5107069;28;20412;-67
2022/07/16 00:19:57;;;;;;;;;;;15.70;99.90;;;;;;5099576;28;19931;-67
2022/07/16 00:22:22;;;;;;;;;;;15.60;99.90;;;;;;5113115;27;20295;-66
2022/07/16 00:24:48;;;;;;;;;;;15.60;99.90;;;;;;5106883;28;20011;-67
2022/07/16 00:27:14;;;;;;;;;;;15.50;99.90;;;;;;5123539;27;19989;-68
2022/07/16 00:29:39;;;;;;;;;;;15.50;99.90;;;;;;5114811;28;19931;-66
2022/07/16 00:32:05;;;;;;;;;;;15.60;99.90;;;;;;5129553;27;19970;-66
2022/07/16 00:34:30;;;;;;;;;;;15.60;99.90;;;;;;5099678;28;19923;-67
2022/07/16 00:36:56;;;;;;;;;;;15.60;99.90;;;;;;5093149;28;20018;-67
2022/07/16 00:39:21;;;;;;;;;;;15.70;99.90;;;;;;5115388;28;20019;-67
2022/07/16 00:41:48;;;;;;;;;;;15.70;99.90;;;;;;5127783;27;19969;-67
2022/07/16 00:44:17;;;;;;;;;;;15.80;99.90;;;;;;5113987;28;19923;-67
2022/07/16 00:46:44;;;;;;;;;;;15.80;99.90;;;;;;5099346;28;19931;-66
2022/07/16 00:49:10;;;;;;;;;;;15.80;99.90;;;;;;5109426;28;20048;-67
2022/07/16 00:51:37;;;;;;;;;;;15.80;99.90;;;;;;5076678;28;20014;-67
2022/07/16 00:54:03;;;;;;;;;;;15.70;99.90;;;;;;5115045;28;19927;-68
2022/07/16 00:56:28;;;;;;;;;;;15.70;99.90;;;;;;5101314;28;19924;-66
2022/07/16 00:58:54;;;;;;;;;;;15.90;99.90;;;;;;5097968;28;19974;-67
2022/07/16 01:01:20;;;;;;;;;;;15.80;99.90;;;;;;5064482;28;19923;-67
2022/07/16 01:03:46;;;;;;;;;;;15.80;99.90;;;;;;5059649;28;19924;-67
2022/07/16 01:06:12;;;;;;;;;;;15.80;99.90;;;;;;5099462;28;19928;-67
2022/07/16 01:08:39;;;;;;;;;;;15.90;99.90;;;;;;5111387;28;19923;-66
2022/07/16 01:11:06;;;;;;;;;;;15.80;99.90;;;;;;5114367;28;19971;-67
2022/07/16 01:13:33;;;;;;;;;;;15.80;99.90;;;;;;5111005;28;19931;-67
2022/07/16 01:15:58;;;;;;;;;;;15.80;99.90;;;;;;5114673;28;19984;-67
2022/07/16 01:18:25;;;;;;;;;;;15.80;99.90;;;;;;5090832;28;19924;-67
2022/07/16 01:20:50;;;;;;;;;;;15.80;99.90;;;;;;5075081;28;19924;-65
2022/07/16 01:23:20;;;;;;;;;;;15.80;99.90;;;;;;5093191;28;19931;-66
2022/07/16 01:25:46;;;;;;;;;;;15.80;99.90;;;;;;5075067;28;19924;-67
2022/07/16 01:28:11;;;;;;;;;;;15.80;99.90;;;;;;5103410;28;19932;-67
2022/07/16 01:30:37;;;;;;;;;;;15.70;99.90;;;;;;5104654;28;20006;-67
2022/07/16 01:33:25;;;;;;;;;;;15.70;99.90;;;;;;5112040;28;20022;-65
2022/07/16 01:35:53;;;;;;;;;;;15.70;99.90;;;;;;5105901;28;19924;-67
2022/07/16 01:38:19;;;;;;;;;;;15.70;99.90;;;;;;5106972;28;20006;-66
2022/07/16 01:40:44;;;;;;;;;;;15.70;99.90;;;;;;5099817;28;20066;-66
2022/07/16 01:43:14;;;;;;;;;;;15.70;99.90;;;;;;5092452;28;20381;-67
2022/07/16 01:45:39;;;;;;;;;;;15.70;99.90;;;;;;5108610;28;19989;-67
2022/07/16 01:48:05;;;;;;;;;;;15.60;99.90;;;;;;5093370;28;20417;-68
2022/07/16 01:50:30;;;;;;;;;;;15.60;99.90;;;;;;5114117;28;20368;-66
2022/07/16 01:52:56;;;;;;;;;;;15.60;99.90;;;;;;5098744;28;19925;-67
2022/07/16 01:55:21;;;;;;;;;;;15.60;99.90;;;;;;5108023;28;19939;-67
2022/07/16 01:57:47;;;;;;;;;;;15.50;99.90;;;;;;5102273;28;20021;-67
2022/07/16 02:00:13;;;;;;;;;;;15.50;99.90;;;;;;5112632;28;20340;-66
2022/07/16 02:02:38;;;;;;;;;;;15.40;99.90;;;;;;5107900;28;19923;-68
2022/07/16 02:05:04;;;;;;;;;;;15.40;99.90;;;;;;5114820;27;20023;-67
2022/07/16 02:07:29;;;;;;;;;;;15.40;99.90;;;;;;5104178;28;19932;-66
2022/07/16 02:09:55;;;;;;;;;;;15.30;99.90;;;;;;5092992;28;20010;-66
2022/07/16 02:12:20;;;;;;;;;;;15.30;99.90;;;;;;5092432;28;19958;-65
2022/07/16 02:14:46;;;;;;;;;;;15.40;99.90;;;;;;5114015;28;19924;-66
2022/07/16 02:17:11;;;;;;;;;;;15.40;99.90;;;;;;5091588;28;19975;-67
2022/07/16 02:19:37;;;;;;;;;;;15.40;99.90;;;;;;5086114;28;19924;-66
2022/07/16 02:22:03;;;;;;;;;;;15.30;99.90;;;;;;5092868;28;20015;-67
2022/07/16 02:24:28;;;;;;;;;;;15.40;99.90;;;;;;5120505;28;19923;-67
2022/07/16 02:26:54;;;;;;;;;;;15.30;99.90;;;;;;5112023;28;20325;-67
2022/07/16 02:29:19;;;;;;;;;;;15.30;99.90;;;;;;5107095;28;19949;-67
2022/07/16 02:31:45;;;;;;;;;;;15.20;99.90;;;;;;5105579;28;19924;-66
2022/07/16 02:37:57;;;;;;;;;;;15.20;99.90;;;;;;5104071;28;19928;-68
2022/07/16 02:40:23;;;;;;;;;;;15.30;99.90;;;;;;5071972;28;19924;-67
2022/07/16 02:42:48;;;;;;;;;;;15.20;99.90;;;;;;5114883;28;19920;-68
2022/07/16 02:45:14;;;;;;;;;;;15.30;99.90;;;;;;5074160;28;20413;-67
2022/07/16 02:47:39;;;;;;;;;;;15.20;99.90;;;;;;5108356;28;19930;-67
2022/07/16 02:50:06;;;;;;;;;;;15.20;99.90;;;;;;5109346;28;19924;-66
2022/07/16 02:52:31;;;;;;;;;;;15.20;99.90;;;;;;5093324;28;20014;-67
2022/07/16 02:54:57;;;;;;;;;;;15.10;99.90;;;;;;5130122;28;19924;-67
2022/07/16 02:57:22;;;;;;;;;;;15.10;99.90;;;;;;5121786;28;19958;-66
2022/07/16 02:59:48;;;;;;;;;;;15.10;99.90;;;;;;5113834;28;19971;-66
2022/07/16 03:02:13;;;;;;;;;;;15.00;99.90;;;;;;5097531;28;19977;-67
2022/07/16 03:04:39;;;;;;;;;;;15.00;99.90;;;;;;5129279;28;19930;-66
2022/07/16 03:07:05;;;;;;;;;;;15.10;99.90;;;;;;5092531;28;19951;-66
2022/07/16 03:09:31;;;;;;;;;;;15.00;99.90;;;;;;5111542;28;19930;-66
2022/07/16 03:11:56;;;;;;;;;;;15.00;99.90;;;;;;5102409;28;19924;-67
2022/07/16 03:17:53;;;;;;;;;;;15.00;99.90;;;;;;5090919;28;19924;-68
2022/07/16 03:20:18;;;;;;;;;;;14.90;99.90;;;;;;5110850;28;20379;-67
2022/07/16 03:22:44;;;;;;;;;;;15.00;99.90;;;;;;5127454;27;19920;-66
2022/07/16 03:25:10;;;;;;;;;;;14.90;99.90;;;;;;5117094;28;19992;-67
2022/07/16 03:27:35;;;;;;;;;;;14.90;99.90;;;;;;5114408;28;20368;-66
2022/07/16 03:30:01;;;;;;;;;;;14.90;99.90;;;;;;5078558;28;19924;-66
2022/07/16 03:32:26;;;;;;;;;;;14.80;99.90;;;;;;5116020;28;19967;-67
2022/07/16 03:34:52;;;;;;;;;;;14.90;99.90;;;;;;5114805;28;19973;-66
2022/07/16 03:37:17;;;;;;;;;;;14.80;99.90;;;;;;5116473;28;19931;-66
2022/07/16 03:39:43;;;;;;;;;;;14.90;99.90;;;;;;5111881;28;19924;-66
2022/07/16 03:42:08;;;;;;;;;;;14.90;99.90;;;;;;5122201;27;19932;-66
2022/07/16 03:44:34;;;;;;;;;;;14.80;99.90;;;;;;5079214;28;19992;-67
2022/07/16 03:47:00;;;;;;;;;;;14.80;99.90;;;;;;5132283;27;19959;-66
2022/07/16 03:49:25;;;;;;;;;;;14.80;99.90;;;;;;5136788;27;20367;-68
2022/07/16 03:51:51;;;;;;;;;;;14.80;99.90;;;;;;5117948;27;20018;-66
2022/07/16 03:54:19;;;;;;;;;;;14.70;99.90;;;;;;5113801;27;20010;-65
2022/07/16 03:56:44;;;;;;;;;;;14.70;99.90;;;;;;5103308;28;19927;-66
2022/07/16 03:59:10;;;;;;;;;;;14.60;99.90;;;;;;5130204;27;19920;-66
2022/07/16 04:01:36;;;;;;;;;;;14.60;99.90;;;;;;5121868;27;19969;-66
2022/07/16 04:04:02;;;;;;;;;;;14.60;99.90;;;;;;5136198;27;19919;-67
2022/07/16 04:06:27;;;;;;;;;;;14.50;99.90;;;;;;5116013;27;20370;-66
2022/07/16 04:08:53;;;;;;;;;;;14.50;99.90;;;;;;5112259;27;19930;-66
2022/07/16 04:11:18;;;;;;;;;;;14.50;99.90;;;;;;5090745;28;19930;-67
2022/07/16 04:13:44;;;;;;;;;;;14.50;99.90;;;;;;5094253;28;20334;-66
2022/07/16 04:16:11;;;;;;;;;;;14.50;99.90;;;;;;5094049;27;20019;-66
2022/07/16 04:18:37;;;;;;;;;;;14.50;99.90;;;;;;5096243;27;20372;-66
2022/07/16 04:21:04;;;;;;;;;;;14.40;99.90;;;;;;5149094;27;19924;-66
2022/07/16 04:23:30;;;;;;;;;;;14.40;99.90;;;;;;5117568;27;19923;-66
2022/07/16 04:25:58;;;;;;;;;;;14.40;99.90;;;;;;5127246;27;20368;-66
2022/07/16 04:28:24;;;;;;;;;;;14.50;99.90;;;;;;5101982;27;19923;-66
2022/07/16 04:30:49;;;;;;;;;;;14.40;99.90;;;;;;5110696;27;20359;-67
2022/07/16 04:33:15;;;;;;;;;;;14.40;99.90;;;;;;5114499;27;20011;-66
2022/07/16 04:35:40;;;;;;;;;;;14.40;99.90;;;;;;5132720;27;19923;-66
2022/07/16 04:38:06;;;;;;;;;;;14.50;99.90;;;;;;5122793;27;20006;-66
2022/07/16 04:40:31;;;;;;;;;;;14.40;99.90;;;;;;5098687;27;19931;-66
2022/07/16 04:42:57;;;;;;;;;;;14.50;99.90;;;;;;5131310;27;20448;-67
2022/07/16 04:45:22;;;;;;;;;;;14.50;99.90;;;;;;5134651;27;19927;-67
2022/07/16 04:47:48;;;;;;;;;;;14.50;99.90;;;;;;5132507;27;20283;-65
2022/07/16 04:50:13;;;;;;;;;;;14.50;99.90;;;;;;5134162;27;20379;-67
2022/07/16 04:52:39;;;;;;;;;;;14.50;99.90;;;;;;5098417;27;19972;-68
2022/07/16 04:55:05;;;;;;;;;;;14.50;99.90;;;;;;5131854;27;19980;-66
2022/07/16 04:57:30;;;;;;;;;;;14.50;99.90;;;;;;5114474;27;19931;-67
2022/07/16 04:59:56;;;;;;;;;;;14.50;99.90;;;;;;5113919;28;19931;-66
2022/07/16 05:05:07;;;;;;;;;;;14.50;99.90;;;;;;5135285;27;19924;-66
2022/07/16 05:07:32;;;;;;;;;;;14.60;99.90;;;;;;5097948;27;19927;-66
2022/07/16 05:09:58;;;;;;;;;;;14.60;99.90;;;;;;5127978;27;19930;-67
2022/07/16 05:12:23;;;;;;;;;;;14.60;99.90;;;;;;5134554;27;19949;-67
2022/07/16 05:14:49;;;;;;;;;;;14.70;99.90;;;;;;5115953;27;19931;-67
2022/07/16 05:17:14;;;;;;;;;;;14.70;99.90;;;;;;5131215;27;20010;-67
2022/07/16 05:19:40;;;;;;;;;;;14.70;99.90;;;;;;5095789;28;19924;-66
2022/07/16 05:22:05;;;;;;;;;;;14.70;99.90;;;;;;5122451;27;20373;-67
2022/07/16 05:28:10;;;;;;;3.88;1.88;;;14.80;99.90;;;;;;5102932;27;20368;-66
2022/07/16 05:30:36;;;;;;;6.13;2.00;;;14.90;99.90;;;;;;5079861;28;20058;-66
2022/07/16 05:33:02;;;;;;;6.35;2.00;;;14.90;99.90;;;;;;5082653;28;20489;-65
2022/07/16 05:35:29;;;;;;;3.15;1.67;;;15.00;99.90;;;;;;5083534;28;20038;-65
2022/07/16 05:37:56;;;;;;;5.10;2.53;;;15.10;99.90;;;;;;5089324;28;20071;-65
2022/07/16 05:40:22;;;;;;;2.53;1.48;;;15.20;99.90;;;;;;5088191;28;20489;-65
2022/07/16 05:42:47;;;;;;;6.63;1.95;;;15.60;99.90;;;;;;5089789;28;20098;-65
2022/07/16 05:45:13;;;;;;;3.85;1.80;;;16.20;99.90;;;;;;5087576;28;20123;-65
2022/07/16 05:47:38;;;;;;;3.92;1.80;;;17.30;99.90;;;;;;5088339;28;20036;-65
2022/07/16 05:50:05;;;;;;;5.15;1.95;;;18.40;99.90;;;;;;5089075;28;20498;-67
2022/07/16 05:52:31;;;;;;;7.13;1.80;;;19.00;99.90;;;;;;5085849;28;20060;-65
2022/07/16 05:54:57;;;;;;;4.82;1.50;;;19.50;99.90;;;;;;5085594;28;20486;-66
2022/07/16 05:57:23;;;;;;;2.65;1.33;;;20.00;99.90;;;;;;5069237;28;20064;-65
2022/07/16 05:59:48;;;;;;;5.30;1.50;;;20.40;99.90;;;;;;5071240;28;20048;-65
2022/07/16 06:02:14;;;;;;;4.78;1.42;;;20.80;99.90;;;;;;5087687;28;20051;-66
2022/07/16 06:04:40;;;;;;;4.68;1.30;;;21.10;99.90;;;;;;5074679;28;20063;-66
2022/07/16 06:07:06;;;;;;;2.17;1.25;;;21.30;99.90;;;;;;5084101;28;20430;-65
2022/07/16 06:09:31;;;;;;;3.55;1.00;;;21.60;99.90;;;;;;5086026;28;20060;-66
2022/07/16 06:11:57;;;;;;;4.15;1.20;;;21.80;99.90;;;;;;5089164;28;20446;-66
2022/07/16 06:14:22;;;;;;;3.63;1.30;;;21.50;99.90;;;;;;5089679;28;20040;-64
2022/07/16 06:16:48;;;;;;;5.97;1.50;;;21.70;99.90;;;;;;5088779;28;20059;-67
2022/07/16 06:19:14;;;;;;;4.88;1.35;;;21.70;99.90;;;;;;5089543;28;20053;-66
2022/07/16 06:21:39;;;;;;;4.95;1.60;;;22.00;99.90;;;;;;5089037;28;20058;-66
2022/07/16 06:24:05;;;;;;;3.70;1.13;;;22.10;99.90;;;;;;5088519;28;20063;-67
2022/07/16 06:26:31;;;;;;;4.60;1.48;;;22.20;99.90;;;;;;5088864;28;20056;-66
2022/07/16 06:28:56;;;;;;;3.22;1.05;;;22.50;99.90;;;;;;5089293;28;20119;-68
2022/07/16 06:31:22;;;;;;;5.70;1.40;;;22.30;99.90;;;;;;5089094;28;20159;-68
2022/07/16 06:33:47;;;;;;;2.90;1.17;;;22.50;99.90;;;;;;5087559;28;20056;-67
2022/07/16 06:36:13;;;;;;;2.03;0.88;;;22.40;99.90;;;;;;5089191;28;20051;-67
2022/07/16 06:38:38;;;;;;;3.63;0.85;;;22.60;99.90;;;;;;5077055;28;20045;-67
2022/07/16 06:41:04;;;;;;;2.03;1.08;;;22.00;99.90;;;;;;5072730;28;20048;-67
2022/07/16 06:43:30;;;;;;;3.40;1.13;;;20.70;99.90;;;;;;5072847;28;20064;-67
2022/07/16 06:45:56;;;;;;;5.28;1.38;;;20.20;99.90;;;;;;5075844;28;20064;-67
2022/07/16 06:48:22;;;;;;;4.15;1.10;;;19.50;99.90;;;;;;5073004;28;20048;-67
2022/07/16 06:50:48;;;;;;;1.67;0.80;;;18.90;99.90;;;;;;5073233;28;20051;-67
2022/07/16 06:53:13;;;;;;;3.45;1.00;;;18.70;99.90;;;;;;5075056;28;20119;-67
2022/07/16 06:55:39;;;;;;;3.63;1.15;;;18.50;99.90;;;;;;5074623;28;20057;-68
2022/07/16 06:58:05;;;;;;;4.63;1.00;;;18.40;99.90;;;;;;5073667;28;20465;-68
2022/07/16 07:00:30;;;;;;;4.50;1.13;;;18.40;99.90;;;;;;5075349;28;20500;-69
2022/07/16 07:02:56;;;;;;;3.55;1.02;;;18.40;99.90;;;;;;5072710;28;20451;-67
2022/07/16 07:05:21;;;;;;;1.40;0.82;;;18.30;99.90;;;;;;5073922;28;20062;-66
2022/07/16 07:07:47;;;;;;;3.55;1.20;;;18.20;99.90;;;;;;5074851;28;20056;-68
2022/07/16 07:10:13;;;;;;;3.78;0.90;;;18.20;99.90;;;;;;5075247;28;20515;-68
2022/07/16 07:12:38;;;;;;;2.45;1.20;;;18.20;99.90;;;;;;5075043;28;20553;-67
2022/07/16 07:15:05;;;;;;;1.15;0.82;;;18.30;99.90;;;;;;5074517;28;20049;-68
2022/07/16 07:17:30;;;;;;;1.65;0.60;;;18.40;99.90;;;;;;5072575;28;20060;-67
2022/07/16 07:19:56;;;;;;;3.45;0.60;;;18.70;99.90;;;;;;5073574;28;20053;-66
2022/07/16 07:22:22;;;;;;;2.30;1.10;;;18.70;99.90;;;;;;5072793;28;20072;-67
2022/07/16 07:24:48;;;;;;;3.90;1.00;;;18.80;99.90;;;;;;5074169;28;20040;-66
2022/07/16 07:27:18;;;;;;;5.13;1.02;;;18.60;99.90;;;;;;5074649;28;20064;-67
2022/07/16 07:29:44;;;;;;;1.88;0.75;;;18.50;99.90;;;;;;5074455;28;20053;-66
2022/07/16 07:32:09;;;;;;;3.78;1.15;;;18.40;99.90;;;;;;5074743;28;20060;-67
2022/07/16 07:34:35;;;;;;;3.17;1.00;;;18.30;99.90;;;;;;5073369;28;20043;-67
2022/07/16 07:37:01;;;;;;;3.40;1.05;;;18.40;99.90;;;;;;5073537;28;20382;-66
2022/07/16 07:39:26;;;;;;;2.13;0.75;;;18.60;99.90;;;;;;5072750;28;20417;-66
2022/07/16 07:41:52;;;;;;;3.15;0.80;;;18.60;99.90;;;;;;5073871;28;20102;-67
2022/07/16 07:44:17;;;;;;;2.47;1.00;;;18.50;99.90;;;;;;5074607;28;20064;-66
2022/07/16 07:46:43;;;;;;;3.22;0.90;;;18.50;99.90;;;;;;5073684;28;20485;-68
2022/07/16 07:49:10;;;;;;;1.83;0.90;;;18.40;99.70;;;;;;5074203;28;20158;-67
2022/07/16 07:51:36;;;;;;;2.50;0.90;;;18.40;98.40;;;;;;5073454;28;20057;-68
2022/07/16 07:54:02;;;;;;;1.40;0.60;;;18.40;96.00;;;;;;5074313;28;20063;-67
2022/07/16 07:56:27;;;;;;;2.35;0.73;;;18.50;94.60;;;;;;5073589;28;20045;-67
2022/07/16 07:58:53;;;;;;;1.80;0.80;;;18.70;94.20;;;;;;5072524;28;20478;-68
2022/07/16 08:01:19;;;;;;;2.97;0.80;;;19.00;93.00;;;;;;5074017;28;20056;-68
2022/07/16 08:03:44;;;;;;;2.80;0.90;;;19.20;91.60;;;;;;5073188;28;20052;-67
2022/07/16 08:06:10;;;;;;;1.98;0.80;;;19.40;91.60;;;;;;5074009;28;20059;-69
2022/07/16 08:08:35;;;;;;;2.75;0.90;;;19.70;91.00;;;;;;5072454;28;20051;-68
2022/07/16 08:11:30;;;;;;;2.67;0.82;;;19.60;89.60;;;;;;5072272;28;20117;-68
2022/07/16 08:13:55;;;;;;;3.63;1.00;;;19.40;81.80;;;;;;5073550;28;20048;-68
2022/07/16 08:16:21;;;;;;;2.00;0.98;;;19.30;90.70;;;;;;5073523;28;20102;-67
2022/07/16 08:18:46;;;;;;;3.92;1.17;;;19.30;90.90;;;;;;5071453;28;20123;-68
2022/07/16 08:21:12;;;;;;;1.58;0.85;;;19.30;91.20;;;;;;5072034;28;20052;-69
2022/07/16 08:27:43;;;;;;;4.75;2.60;;;19.80;76.80;;;;;;5088849;28;20066;-67
2022/07/16 08:30:12;;;;;;;3.80;1.00;;;19.90;89.10;;;;;;5096032;28;20472;-68
2022/07/16 08:32:37;;;;;;;1.58;0.73;;;20.00;85.90;;;;;;5110786;28;20048;-69
2022/07/16 08:35:04;;;;;;;3.45;0.88;;;19.90;82.70;;;;;;5092407;28;20048;-69
2022/07/16 08:37:39;;;;;;;4.80;0.88;;;19.80;79.00;;;;;;5093339;28;20209;-69
2022/07/16 08:40:10;;;;;;;1.67;0.60;;;19.90;79.70;;;;;;5094071;28;20106;-66
2022/07/16 08:42:37;;;;;;;4.15;0.93;;;20.00;81.40;;;;;;5112657;28;20514;-67
2022/07/16 08:45:22;;;;;;;1.60;0.63;;;20.00;79.50;;;;;;5078675;28;20044;-70
2022/07/16 08:47:53;;;;;;;2.92;1.00;;;20.00;74.20;;;;;;5112616;28;20488;-68
2022/07/16 08:50:21;;;;;;;2.13;0.73;;;19.70;71.70;;;;;;5095479;28;20043;-67
2022/07/16 08:52:52;;;;;;;2.53;0.65;;;19.70;77.80;;;;;;5113701;28;20428;-66
2022/07/16 08:55:21;;;;;;;1.70;0.60;;;19.90;77.70;;;;;;5095187;28;20089;-67
2022/07/16 08:57:48;;;;;;;5.65;1.30;;;20.00;78.40;;;;;;5095381;28;20310;-68
2022/07/16 09:00:15;;;;;;;3.63;0.85;;;20.20;77.50;;;;;;5113468;28;20063;-67
2022/07/16 09:02:45;;;;;;;3.85;0.75;;;20.30;73.00;;;;;;5094097;28;20049;-68
2022/07/16 09:05:11;;;;;;;2.22;0.80;;;20.30;68.30;;;;;;5095014;28;20047;-67
2022/07/16 09:11:44;;;;;;;1.55;0.68;;;20.10;65.20;;;;;;5113265;28;20089;-65
2022/07/16 09:14:19;;;;;;;2.00;0.50;;;20.00;72.30;;;;;;5078527;28;20051;-67
2022/07/16 09:16:53;;;;;;;3.67;0.70;;;20.00;69.80;;;;;;5094586;28;20493;-66
2022/07/16 09:19:21;;;;;;;2.70;0.80;;;20.00;70.20;;;;;;5078658;28;20540;-66
2022/07/16 09:22:01;;;;;;;3.90;0.90;;;20.00;71.00;;;;;;5077841;28;20039;-66
2022/07/16 09:24:51;;;;;;;2.80;0.75;;;20.30;72.70;;;;;;5078161;28;20039;-67
2022/07/16 09:27:24;;;;;;;3.85;0.77;;;20.70;68.60;;;;;;5094241;28;20048;-66
2022/07/16 09:29:52;;;;;;;3.45;0.88;;;20.80;65.90;;;;;;5113153;28;20062;-67
2022/07/16 09:32:31;;;;;;;2.03;0.68;;;20.70;67.00;;;;;;5094341;28;20126;-68
2022/07/16 09:35:11;;;;;;;1.15;0.65;;;20.40;67.30;;;;;;5094426;28;20112;-67
2022/07/16 09:37:55;;;;;;;2.13;0.80;;;20.20;65.80;;;;;;5111850;28;20504;-66
2022/07/16 09:40:32;;;;;;;2.75;0.75;;;20.00;68.00;;;;;;5082759;28;20048;-65
2022/07/16 09:42:58;;;;;;;3.97;0.88;;;19.90;70.20;;;;;;5077996;28;20052;-66
2022/07/16 09:45:24;;;;;;;2.10;0.98;;;19.90;72.30;;;;;;5078475;28;20469;-67
2022/07/16 09:47:50;;;;;;;1.98;0.75;;;19.80;74.50;;;;;;5057288;28;20044;-65
2022/07/16 09:50:16;;;;;;;1.73;0.82;;;19.90;76.30;;;;;;5074677;28;20051;-65
2022/07/16 09:52:41;;;;;;;3.97;0.85;;;19.90;76.50;;;;;;5108467;28;20036;-64
2022/07/16 09:55:07;;;;;;;2.40;0.75;;;19.80;78.40;;;;;;5113018;28;20055;-64
2022/07/16 09:57:34;;;;;;;2.78;0.90;;;19.90;79.90;;;;;;5094673;28;20047;-65
2022/07/16 10:00:00;;;;;;;3.65;0.90;;;20.00;79.90;;;;;;5111232;28;20078;-64
2022/07/16 10:02:29;;;;;;;1.88;0.73;;;20.30;80.10;;;;;;5112703;28;20241;-66
2022/07/16 10:05:36;;;;;;;;;;;;;;;;;;;;;
2022/07/16 10:08:14;;;;;;;2.00;0.80;;;20.50;75.30;;;;;;5083437;28;20055;-66
2022/07/16 10:10:40;;;;;;;3.88;1.20;;;20.40;78.60;;;;;;5094391;28;20086;-66
2022/07/16 10:13:10;;;;;;;3.80;0.73;;;20.40;82.90;;;;;;5077826;28;20101;-66
2022/07/16 10:15:37;;;;;;;2.22;1.00;;;20.00;84.70;;;;;;5079895;28;20051;-68
2022/07/16 10:18:23;;;;;;;3.50;1.10;;;19.70;87.70;;;;;;5065113;28;20044;-66
2022/07/16 10:21:08;;;;;;;5.05;0.98;;;19.60;90.90;;;;;;5063275;28;20048;-67
2022/07/16 10:23:36;;;;;;;2.63;1.27;;;19.70;92.60;;;;;;5080630;28;20178;-67
2022/07/16 10:26:28;;;;;;;2.90;0.80;;;19.70;91.40;;;;;;5081287;27;20508;-66
2022/07/16 10:29:04;;;;;;;2.30;0.75;;;20.20;91.10;;;;;;5063068;28;20440;-68
2022/07/16 10:31:33;;;;;;;1.40;1.05;;;20.60;90.00;;;;;;5081509;28;20092;-69
2022/07/16 10:34:40;;;;;;;2.72;0.70;;;20.70;82.70;;;;;;5081070;28;20043;-68
2022/07/16 10:41:15;;;;;;;3.15;0.85;;;21.10;73.80;;;;;;5076406;28;20096;-66
2022/07/16 10:43:43;;;;;;;2.28;0.60;;;21.50;70.30;;;;;;5095950;28;20047;-67
2022/07/16 10:51:33;;;;;;;2.53;1.20;;;20.90;63.80;;;;;;5137153;27;20414;-66
2022/07/16 10:58:05;;;;;;;3.00;0.75;;;20.80;62.70;;;;;;5128119;28;20046;-67
2022/07/16 11:00:31;;;;;;;2.47;1.17;;;21.20;65.70;;;;;;5111272;28;20043;-68
2022/07/16 11:03:18;;;;;;;2.53;0.77;;;21.60;65.40;;;;;;5110273;28;20397;-68
2022/07/16 11:05:49;;;;;;;2.80;0.60;;;21.70;63.50;;;;;;5108674;28;20059;-67
2022/07/16 11:09:05;;;;;;;2.92;0.80;;;21.80;63.60;;;;;;5109122;28;20427;-68
2022/07/16 11:11:37;;;;;;;3.28;0.90;;;21.50;61.40;;;;;;5109960;28;20047;-67
2022/07/16 11:14:29;;;;;;;3.20;0.90;;;21.50;63.00;;;;;;5099668;28;20051;-69
2022/07/16 11:21:07;;;;;;;2.28;1.00;;;21.60;61.50;;;;;;5129604;28;20132;-67
2022/07/16 11:23:51;;;;;;;1.33;0.63;;;21.60;63.30;;;;;;5130412;28;20612;-67
2022/07/16 11:26:19;;;;;;;4.28;1.10;;;21.80;63.40;;;;;;5112295;28;20058;-67
2022/07/16 11:28:58;;;;;;;2.63;1.00;;;21.70;62.30;;;;;;5127947;28;20458;-69
2022/07/16 11:31:31;;;;;;;2.17;0.95;;;21.80;60.00;;;;;;5123235;28;20043;-68
2022/07/16 11:34:08;;;;;;;3.75;0.98;;;21.90;60.70;;;;;;5092017;28;20050;-66
2022/07/16 11:36:39;;;;;;;4.32;0.75;;;21.90;60.60;;;;;;5128172;28;20189;-66
2022/07/16 11:39:17;;;;;;;4.00;0.85;;;22.00;60.40;;;;;;5111736;28;20510;-66
2022/07/16 11:41:45;;;;;;;3.45;0.80;;;21.90;59.80;;;;;;5129988;28;20127;-65
2022/07/16 11:44:16;;;;;;;3.83;1.00;;;21.90;60.00;;;;;;5129033;28;20130;-67
2022/07/16 11:46:59;;;;;;;3.75;1.10;;;21.90;61.50;;;;;;5111713;28;20052;-68
2022/07/16 11:49:34;;;;;;;3.15;0.85;;;22.00;62.50;;;;;;5074436;28;20134;-66
2022/07/16 11:52:03;;;;;;;3.58;0.90;;;22.10;62.50;;;;;;5104454;28;20039;-66
2022/07/16 11:54:30;;;;;;;3.90;1.10;;;22.20;62.30;;;;;;5128151;28;20044;-67
2022/07/16 11:56:56;;;;;;;4.00;1.60;;;22.40;61.40;;;;;;5130358;28;20134;-68
2022/07/16 11:59:31;;;;;;;3.03;1.08;;;22.50;62.10;;;;;;5129578;28;20484;-66
2022/07/16 12:02:00;;;;;;;3.83;1.25;;;22.60;60.20;;;;;;5099171;28;20128;-67
2022/07/16 12:05:00;;;;;;;3.20;1.08;;;22.50;59.50;;;;;;5078061;28;20060;-67
2022/07/16 12:07:25;;;;;;;1.38;0.80;;;22.60;59.70;;;;;;5056632;28;20484;-67
2022/07/16 12:09:57;;;;;;;1.05;0.50;;;22.60;58.40;;;;;;5084161;28;20056;-68
2022/07/16 12:12:26;;;;;;;;;;;22.70;58.60;;;;;;5080121;28;20043;-66
2022/07/16 12:15:02;;;;;;;2.05;0.73;;;22.40;59.50;;;;;;5081675;28;19920;-68
2022/07/16 12:17:38;;;;;;;1.30;0.88;;;22.10;60.90;;;;;;5108376;28;20043;-68
2022/07/16 12:20:17;;;;;;;2.70;0.90;;;22.00;62.10;;;;;;5077828;28;20047;-67
2022/07/16 12:22:55;;;;;;;1.63;0.77;;;21.90;62.30;;;;;;5077007;28;20492;-68
2022/07/16 12:25:36;;;;;;;3.38;1.20;;;21.90;62.30;;;;;;5077271;28;20044;-66
2022/07/16 12:28:08;;;;;;;3.00;0.88;;;22.00;62.20;;;;;;5076895;28;20051;-67
2022/07/16 12:30:41;;;;;;;2.13;0.73;;;22.10;61.70;;;;;;5095323;28;20048;-67
2022/07/16 12:33:09;;;;;;;4.32;0.90;;;22.40;61.10;;;;;;5098285;28;20052;-68
2022/07/16 12:35:40;;;;;;;2.75;0.80;;;22.60;60.70;;;;;;5095422;28;20086;-67
2022/07/16 12:38:06;;;;;;;2.00;0.90;;;22.60;59.40;;;;;;5094961;28;20055;-66
2022/07/16 12:40:32;;;;;;;3.03;1.20;;;22.60;59.50;;;;;;5076837;28;20056;-66
2022/07/16 12:43:00;;;;;;;2.28;0.60;;;22.30;59.20;;;;;;5094920;28;20558;-66
2022/07/16 12:45:26;;;;;;;4.00;1.00;;;22.00;59.10;;;;;;5076725;28;20048;-66
2022/07/16 12:47:52;;;;;;;2.13;0.80;;;21.80;59.40;;;;;;5094854;28;20103;-66
2022/07/16 12:50:18;;;;;;;3.40;0.90;;;21.70;59.70;;;;;;5095251;28;20063;-65
2022/07/16 12:52:44;;;;;;;3.53;0.75;;;21.80;59.90;;;;;;5094590;28;20048;-66
2022/07/16 13:00:38;;;;;;;3.72;0.82;;;22.10;58.50;;;;;;5096069;28;20044;-66
2022/07/16 13:03:04;;;;;;;3.88;0.77;;;22.00;59.00;;;;;;5094334;28;20382;-66
2022/07/16 13:05:30;;;;;;;3.28;0.98;;;21.80;58.90;;;;;;5094840;28;20040;-68
2022/07/16 13:07:56;;;;;;;2.53;0.75;;;21.80;59.30;;;;;;5094555;28;20059;-67
2022/07/16 13:10:22;;;;;;;3.15;1.25;;;21.80;59.20;;;;;;5094798;28;20052;-68
2022/07/16 13:12:48;;;;;;;2.35;0.80;;;21.90;59.00;;;;;;5095146;28;20476;-66
2022/07/16 13:15:16;;;;;;;5.20;1.08;;;22.00;58.80;;;;;;5084267;28;20441;-68
2022/07/16 13:17:43;;;;;;;2.80;0.85;;;22.10;58.20;;;;;;5085528;28;20408;-68
2022/07/16 13:20:09;;;;;;;2.40;0.95;;;22.40;57.50;;;;;;5098018;28;20044;-66
2022/07/16 13:22:35;;;;;;;2.35;0.82;;;22.40;56.90;;;;;;5094816;28;20071;-66
2022/07/16 13:25:01;;;;;;;1.90;0.70;;;22.40;57.20;;;;;;5094289;28;20404;-67
2022/07/16 13:27:27;;;;;;;3.47;1.08;;;22.40;57.10;;;;;;5105696;28;20043;-65
2022/07/16 13:29:52;;;;;;;3.35;0.93;;;22.30;57.10;;;;;;5096301;28;20047;-66
2022/07/16 13:32:18;;;;;;;2.47;1.05;;;22.30;57.40;;;;;;5113856;28;20166;-66
2022/07/16 13:34:43;;;;;;;3.70;1.00;;;22.30;57.90;;;;;;5091101;28;20158;-65
2022/07/16 13:37:09;;;;;;;3.13;0.90;;;22.40;57.50;;;;;;5094061;28;20071;-66
2022/07/16 13:39:35;;;;;;;2.33;1.00;;;22.60;57.50;;;;;;5094182;28;20097;-66
2022/07/16 13:42:01;;;;;;;3.22;0.98;;;22.60;56.40;;;;;;5094031;28;20480;-66
2022/07/16 13:44:26;;;;;;;1.83;0.77;;;22.80;56.90;;;;;;5076217;28;20139;-65
2022/07/16 13:46:52;;;;;;;2.17;0.80;;;22.90;56.90;;;;;;5093096;28;20052;-67
2022/07/16 13:49:18;;;;;;;2.92;1.10;;;22.90;56.50;;;;;;5105322;28;20048;-66
2022/07/16 13:51:43;;;;;;;3.60;1.23;;;22.70;56.00;;;;;;5098525;28;20063;-67
2022/07/16 13:54:09;;;;;;;3.50;1.00;;;22.40;56.20;;;;;;5093813;28;20048;-66
2022/07/16 13:56:34;;;;;;;2.03;1.00;;;22.10;56.80;;;;;;5093399;28;20051;-65
2022/07/16 13:59:00;;;;;;;3.28;0.90;;;21.90;57.30;;;;;;5096835;28;20126;-66
2022/07/16 14:01:26;;;;;;;4.10;1.02;;;21.90;58.00;;;;;;5071071;28;20044;-66
2022/07/16 14:03:51;;;;;;;4.07;0.98;;;21.80;58.50;;;;;;5057922;28;20167;-66
2022/07/16 14:06:17;;;;;;;4.97;1.23;;;21.70;58.70;;;;;;5075295;28;20376;-67
2022/07/16 14:08:43;;;;;;;2.53;1.02;;;21.70;58.40;;;;;;5075406;28;20055;-67
2022/07/16 14:11:08;;;;;;;1.75;0.93;;;21.60;58.50;;;;;;5093245;28;20048;-67
2022/07/16 14:13:34;;;;;;;3.88;1.10;;;21.50;58.70;;;;;;5101155;28;20044;-66